Home > Products > Valid Products > TAF

000
FTUS42 KTBW 272342
TAFPIE
TAF
KPIE 272342Z 2800/2824 34007KT P6SM VCSH SCT030 BKN080
     FM280300 VRB04KT P6SM VCSH SCT025 BKN080
     FM281000 05006KT P6SM -RA VCTS SCT010CB BKN025 OVC080
      TEMPO 2810/2814 3SM TSRA BKN010CB
     FM281400 08007KT P6SM -RA VCTS SCT010CB BKN025 OVC080
     FM281800 VRB05KT P6SM VCTS SCT010CB BKN025 OVC080=



000
FTUS42 KTBW 272342
TAFTPA
TAF
KTPA 272342Z 2800/2824 34007KT P6SM VCSH SCT030 BKN080
     FM280300 VRB03KT P6SM VCSH SCT025 BKN080
     FM281000 05004KT P6SM -RA VCTS SCT010CB BKN025 OVC080
      TEMPO 2810/2814 3SM TSRA BKN010CB
     FM281400 08007KT P6SM -RA VCTS SCT010CB BKN025 OVC080
     FM281800 VRB05KT P6SM VCTS SCT010CB BKN025 OVC080=



000
FTUS42 KTBW 272342
TAFSRQ
TAF
KSRQ 272342Z 2800/2824 04007KT P6SM VCSH FEW030 SCT080 OVC200
     FM280400 08005KT P6SM VCSH SCT025 BKN080
     FM281200 09005KT P6SM -RA VCTS SCT010CB BKN025 OVC080
      TEMPO 2812/2816 3SM TSRA BKN010CB
     FM281600 13007KT P6SM -RA VCTS SCT010CB BKN025 OVC080
     FM281900 18010KT P6SM VCTS SCT010CB BKN025 OVC080=



000
FTUS42 KTBW 272342
TAFTPA
TAF
KTPA 272342Z 2800/2824 34007KT P6SM VCSH SCT030 BKN080
     FM280300 VRB03KT P6SM VCSH SCT025 BKN080
     FM281000 05004KT P6SM -RA VCTS SCT010CB BKN025 OVC080
      TEMPO 2810/2814 3SM TSRA BKN010CB
     FM281400 08007KT P6SM -RA VCTS SCT010CB BKN025 OVC080
     FM281800 VRB05KT P6SM VCTS SCT010CB BKN025 OVC080=



000
FTUS42 KTBW 272342
TAFFMY
TAF
KFMY 272342Z 2800/2824 05006KT P6SM FEW035 BKN200
     FM280300 VRB04KT P6SM FEW035 SCT080 OVC200
     FM281000 08004KT P6SM VCSH SCT010 BKN030 OVC080
     FM281400 14008KT P6SM VCTS SCT010CB BKN030 OVC080
     FM281800 20010KT P6SM VCTS SCT010CB BKN035 OVC080=



000
FTUS42 KTBW 272342
TAFRSW
TAF
KRSW 272342Z 2800/2824 05006KT P6SM FEW035 BKN200
     FM280300 VRB04KT P6SM FEW035 SCT080 OVC200
     FM281000 08004KT P6SM VCSH SCT010 BKN030 OVC080
     FM281400 14008KT P6SM VCTS SCT010CB BKN030 OVC080
     FM281800 20010KT P6SM VCTS SCT010CB BKN035 OVC080=



000
FTUS42 KTBW 272342
TAFPIE
TAF
KPIE 272342Z 2800/2824 34007KT P6SM VCSH SCT030 BKN080
     FM280300 VRB04KT P6SM VCSH SCT025 BKN080
     FM281000 05006KT P6SM -RA VCTS SCT010CB BKN025 OVC080
      TEMPO 2810/2814 3SM TSRA BKN010CB
     FM281400 08007KT P6SM -RA VCTS SCT010CB BKN025 OVC080
     FM281800 VRB05KT P6SM VCTS SCT010CB BKN025 OVC080=



000
FTUS42 KTBW 272342
TAFFMY
TAF
KFMY 272342Z 2800/2824 05006KT P6SM FEW035 BKN200
     FM280300 VRB04KT P6SM FEW035 SCT080 OVC200
     FM281000 08004KT P6SM VCSH SCT010 BKN030 OVC080
     FM281400 14008KT P6SM VCTS SCT010CB BKN030 OVC080
     FM281800 20010KT P6SM VCTS SCT010CB BKN035 OVC080=



000
FTUS42 KTBW 272342
TAFRSW
TAF
KRSW 272342Z 2800/2824 05006KT P6SM FEW035 BKN200
     FM280300 VRB04KT P6SM FEW035 SCT080 OVC200
     FM281000 08004KT P6SM VCSH SCT010 BKN030 OVC080
     FM281400 14008KT P6SM VCTS SCT010CB BKN030 OVC080
     FM281800 20010KT P6SM VCTS SCT010CB BKN035 OVC080=



000
FTUS42 KTBW 272342
TAFSRQ
TAF
KSRQ 272342Z 2800/2824 04007KT P6SM VCSH FEW030 SCT080 OVC200
     FM280400 08005KT P6SM VCSH SCT025 BKN080
     FM281200 09005KT P6SM -RA VCTS SCT010CB BKN025 OVC080
      TEMPO 2812/2816 3SM TSRA BKN010CB
     FM281600 13007KT P6SM -RA VCTS SCT010CB BKN025 OVC080
     FM281900 18010KT P6SM VCTS SCT010CB BKN025 OVC080=



000
FTUS42 KTBW 272107 AAA
TAFTPA
TAF AMD
KTPA 272107Z 2721/2818 32008KT P6SM FEW050 BKN200
     FM280000 34007KT P6SM VCSH SCT035 BKN200
     FM280300 34005KT P6SM VCSH BKN040 OVC200
     FM280600 36004KT 6SM SHRA BKN030 BKN090 OVC200
     FM281200 04008KT 6SM SHRA BKN030 BKN090 OVC250
      TEMPO 2812/2816 4SM TSRA BKN025CB OVC060=



000
FTUS42 KTBW 272107 AAA
TAFTPA
TAF AMD
KTPA 272107Z 2721/2818 32008KT P6SM FEW050 BKN200
     FM280000 34007KT P6SM VCSH SCT035 BKN200
     FM280300 34005KT P6SM VCSH BKN040 OVC200
     FM280600 36004KT 6SM SHRA BKN030 BKN090 OVC200
     FM281200 04008KT 6SM SHRA BKN030 BKN090 OVC250
      TEMPO 2812/2816 4SM TSRA BKN025CB OVC060=



000
FTUS42 KTBW 271738
TAFFMY
TAF
KFMY 271738Z 2718/2818 28008KT P6SM FEW035 BKN200
     FM280300 32004KT P6SM VCSH SCT050 BKN200
     FM280800 06004KT 6SM SHRA BKN035 BKN090 BKN250
     FM281200 05005KT 6SM SHRA BKN030 BKN090 BKN250
      TEMPO 2812/2816 4SM TSRA BKN025CB OVC060=



000
FTUS42 KTBW 271738
TAFPIE
TAF
KPIE 271738Z 2718/2818 02007KT P6SM FEW035 BKN200
     FM280000 32010KT P6SM VCSH SCT035 BKN150 BKN250
     FM280300 33005KT P6SM VCSH SCT035 BKN200
     FM280600 30006KT 6SM SHRA BKN030 BKN090 BKN250
     FM281200 02006KT 6SM SHRA BKN030 BKN090 BKN250
      TEMPO 2812/2816 4SM TSRA BKN025CB OVC060=



000
FTUS42 KTBW 271738
TAFSRQ
TAF
KSRQ 271738Z 2718/2818 25008KT P6SM FEW035 BKN200
     FM280000 31009KT P6SM VCSH SCT035 BKN100 BKN250
     FM280300 16005KT P6SM VCSH SCT050 BKN200
     FM280600 10004KT 6SM SHRA BKN035 BKN090 BKN250
     FM281200 04005KT 6SM SHRA BKN030 BKN090 BKN250
      TEMPO 2812/2816 4SM TSRA BKN025CB OVC060=



000
FTUS42 KTBW 271738
TAFRSW
TAF
KRSW 271738Z 2718/2818 26009KT P6SM FEW035 BKN200
     FM280300 25004KT P6SM VCSH SCT050 BKN200
     FM280800 VRB03KT 6SM SHRA BKN035 BKN090 BKN250
     FM281200 05005KT 6SM SHRA BKN030 BKN090 BKN250
      TEMPO 2812/2816 4SM TSRA BKN025CB OVC060=



000
FTUS42 KTBW 271738
TAFTPA
TAF
KTPA 271738Z 2718/2818 26006KT P6SM FEW035 BKN200
     FM280000 34007KT P6SM VCSH SCT035 BKN200
     FM280300 34005KT P6SM VCSH BKN040 OVC200
     FM280600 36004KT 6SM SHRA BKN030 BKN090 OVC200
     FM281200 04008KT 6SM SHRA BKN030 BKN090 OVC250
      TEMPO 2812/2816 4SM TSRA BKN025CB OVC060=



000
FTUS42 KTBW 271738
TAFTPA
TAF
KTPA 271738Z 2718/2818 26006KT P6SM FEW035 BKN200
     FM280000 34007KT P6SM VCSH SCT035 BKN200
     FM280300 34005KT P6SM VCSH BKN040 OVC200
     FM280600 36004KT 6SM SHRA BKN030 BKN090 OVC200
     FM281200 04008KT 6SM SHRA BKN030 BKN090 OVC250
      TEMPO 2812/2816 4SM TSRA BKN025CB OVC060=



000
FTUS42 KTBW 271738
TAFFMY
TAF
KFMY 271738Z 2718/2818 28008KT P6SM FEW035 BKN200
     FM280300 32004KT P6SM VCSH SCT050 BKN200
     FM280800 06004KT 6SM SHRA BKN035 BKN090 BKN250
     FM281200 05005KT 6SM SHRA BKN030 BKN090 BKN250
      TEMPO 2812/2816 4SM TSRA BKN025CB OVC060=



000
FTUS42 KTBW 271738
TAFRSW
TAF
KRSW 271738Z 2718/2818 26009KT P6SM FEW035 BKN200
     FM280300 25004KT P6SM VCSH SCT050 BKN200
     FM280800 VRB03KT 6SM SHRA BKN035 BKN090 BKN250
     FM281200 05005KT 6SM SHRA BKN030 BKN090 BKN250
      TEMPO 2812/2816 4SM TSRA BKN025CB OVC060=



000
FTUS42 KTBW 271738
TAFSRQ
TAF
KSRQ 271738Z 2718/2818 25008KT P6SM FEW035 BKN200
     FM280000 31009KT P6SM VCSH SCT035 BKN100 BKN250
     FM280300 16005KT P6SM VCSH SCT050 BKN200
     FM280600 10004KT 6SM SHRA BKN035 BKN090 BKN250
     FM281200 04005KT 6SM SHRA BKN030 BKN090 BKN250
      TEMPO 2812/2816 4SM TSRA BKN025CB OVC060=



000
FTUS42 KTBW 271738
TAFPIE
TAF
KPIE 271738Z 2718/2818 02007KT P6SM FEW035 BKN200
     FM280000 32010KT P6SM VCSH SCT035 BKN150 BKN250
     FM280300 33005KT P6SM VCSH SCT035 BKN200
     FM280600 30006KT 6SM SHRA BKN030 BKN090 BKN250
     FM281200 02006KT 6SM SHRA BKN030 BKN090 BKN250
      TEMPO 2812/2816 4SM TSRA BKN025CB OVC060=



000
FTUS42 KTBW 271505 AAA
TAFTPA
TAF AMD
KTPA 271505Z 2715/2812 31006KT P6SM VCSH SCT030 BKN200
      TEMPO 2718/2721 5SM SHRA BKN025
     FM272300 30009KT P6SM SCT030 BKN100 BKN250
     FM280900 34004KT P6SM VCSH BKN040 OVC080=



000
FTUS42 KTBW 271505 AAA
TAFTPA
TAF AMD
KTPA 271505Z 2715/2812 31006KT P6SM VCSH SCT030 BKN200
      TEMPO 2718/2721 5SM SHRA BKN025
     FM272300 30009KT P6SM SCT030 BKN100 BKN250
     FM280900 34004KT P6SM VCSH BKN040 OVC080=



000
FTUS42 KTBW 271121
TAFPIE
TAF
KPIE 271121Z 2712/2812 27008KT P6SM SCT015 OVC080
      TEMPO 2712/2716 4SM SHRA BKN015
     FM271600 30008KT P6SM VCTS SCT025CB OVC080
     FM271900 34008KT P6SM SCT030 BKN100
     FM280100 12006KT P6SM SCT020 SCT100 BKN250=



000
FTUS42 KTBW 271121
TAFFMY
TAF
KFMY 271121Z 2712/2812 27005KT P6SM SCT040 BKN250
     FM271400 29009KT P6SM SCT030 BKN250
     FM271900 32010KT P6SM VCTS SCT040CB SCT120 BKN250
     FM280100 12004KT P6SM SCT020 SCT100 BKN250=



000
FTUS42 KTBW 271121
TAFSRQ
TAF
KSRQ 271121Z 2712/2812 30008KT P6SM VCSH SCT012 BKN025 OVC080
      TEMPO 2712/2715 BKN012 OVC090
     FM271500 29008KT P6SM SCT025 BKN100
      TEMPO 2715/2719 4SM SHRA BKN025
     FM271900 35009KT P6SM SCT030 BKN100
     FM280100 13006KT P6SM SCT020 SCT100 BKN250=



000
FTUS42 KTBW 271121
TAFFMY
TAF
KFMY 271121Z 2712/2812 27005KT P6SM SCT040 BKN250
     FM271400 29009KT P6SM SCT030 BKN250
     FM271900 32010KT P6SM VCTS SCT040CB SCT120 BKN250
     FM280100 12004KT P6SM SCT020 SCT100 BKN250=



000
FTUS42 KTBW 271121
TAFTPA
TAF
KTPA 271121Z 2712/2812 28008KT P6SM VCSH SCT011 BKN035 OVC090
      TEMPO 2712/2716 4SM SHRA BKN011
     FM271600 30008KT P6SM VCTS SCT025CB OVC080
     FM271900 34008KT P6SM SCT030 BKN100
     FM280100 12004KT P6SM SCT020 SCT100 BKN250=



000
FTUS42 KTBW 271121
TAFSRQ
TAF
KSRQ 271121Z 2712/2812 30008KT P6SM VCSH SCT012 BKN025 OVC080
      TEMPO 2712/2715 BKN012 OVC090
     FM271500 29008KT P6SM SCT025 BKN100
      TEMPO 2715/2719 4SM SHRA BKN025
     FM271900 35009KT P6SM SCT030 BKN100
     FM280100 13006KT P6SM SCT020 SCT100 BKN250=



000
FTUS42 KTBW 271121
TAFPIE
TAF
KPIE 271121Z 2712/2812 27008KT P6SM SCT015 OVC080
      TEMPO 2712/2716 4SM SHRA BKN015
     FM271600 30008KT P6SM VCTS SCT025CB OVC080
     FM271900 34008KT P6SM SCT030 BKN100
     FM280100 12006KT P6SM SCT020 SCT100 BKN250=



000
FTUS42 KTBW 271121
TAFTPA
TAF
KTPA 271121Z 2712/2812 28008KT P6SM VCSH SCT011 BKN035 OVC090
      TEMPO 2712/2716 4SM SHRA BKN011
     FM271600 30008KT P6SM VCTS SCT025CB OVC080
     FM271900 34008KT P6SM SCT030 BKN100
     FM280100 12004KT P6SM SCT020 SCT100 BKN250=



000
FTUS42 KTBW 271121
TAFRSW
TAF
KRSW 271121Z 2712/2812 27005KT P6SM SCT040 BKN250
     FM271400 29009KT P6SM SCT030 BKN250
     FM271900 32010KT P6SM VCTS SCT040CB SCT120 BKN250
     FM280100 12004KT P6SM SCT020 SCT100 BKN250=



000
FTUS42 KTBW 271121
TAFRSW
TAF
KRSW 271121Z 2712/2812 27005KT P6SM SCT040 BKN250
     FM271400 29009KT P6SM SCT030 BKN250
     FM271900 32010KT P6SM VCTS SCT040CB SCT120 BKN250
     FM280100 12004KT P6SM SCT020 SCT100 BKN250=



000
FTUS42 KTBW 270858 AAA
TAFTPA
TAF AMD
KTPA 270858Z 2709/2806 27006KT P6SM SCT011 BKN025
      TEMPO 2709/2713 BKN011
     FM271300 29008KT P6SM VCSH SCT015 BKN025
      TEMPO 2713/2717 SCT025 BKN050
     FM271900 34008KT P6SM SCT030 BKN100
     FM280100 12004KT P6SM SCT020 SCT100 BKN250=



000
FTUS42 KTBW 270538
TAFTPA
TAF
KTPA 270538Z 2706/2806 25008KT P6SM BKN017
      TEMPO 2708/2712 SCT015 BKN025
     FM271300 29008KT P6SM VCSH SCT015 BKN025
      TEMPO 2713/2717 SCT025 BKN050
     FM271900 34008KT P6SM SCT030 BKN100
     FM280100 12004KT P6SM SCT020 SCT100 BKN250=



000
FTUS42 KTBW 270538
TAFPIE
TAF
KPIE 270538Z 2706/2806 24008KT P6SM BKN015
      TEMPO 2706/2710 SCT015
     FM271300 29008KT P6SM VCSH SCT015 BKN025
      TEMPO 2713/2717 SCT025 BKN050
     FM271900 34008KT P6SM SCT030 BKN100
     FM280100 12006KT P6SM SCT020 SCT100 BKN250=



000
FTUS42 KTBW 270538
TAFTPA
TAF
KTPA 270538Z 2706/2806 25008KT P6SM BKN017
      TEMPO 2708/2712 SCT015 BKN025
     FM271300 29008KT P6SM VCSH SCT015 BKN025
      TEMPO 2713/2717 SCT025 BKN050
     FM271900 34008KT P6SM SCT030 BKN100
     FM280100 12004KT P6SM SCT020 SCT100 BKN250=



000
FTUS42 KTBW 270538
TAFRSW
TAF
KRSW 270538Z 2706/2806 25005KT P6SM SCT020 SCT250
      TEMPO 2708/2712 BKN020
     FM271400 29009KT P6SM SCT025 BKN250
     FM271900 32010KT P6SM VCTS SCT040CB SCT120 BKN250
     FM280100 12004KT P6SM SCT020 SCT100 BKN250=



000
FTUS42 KTBW 270538
TAFPIE
TAF
KPIE 270538Z 2706/2806 24008KT P6SM BKN015
      TEMPO 2706/2710 SCT015
     FM271300 29008KT P6SM VCSH SCT015 BKN025
      TEMPO 2713/2717 SCT025 BKN050
     FM271900 34008KT P6SM SCT030 BKN100
     FM280100 12006KT P6SM SCT020 SCT100 BKN250=



000
FTUS42 KTBW 270538
TAFFMY
TAF
KFMY 270538Z 2706/2806 25006KT P6SM SCT020 SCT250
      TEMPO 2708/2712 BKN020
     FM271400 29009KT P6SM SCT025 BKN250
     FM271900 32010KT P6SM VCTS SCT040CB SCT120 BKN250
     FM280100 12004KT P6SM SCT020 SCT100 BKN250=



000
FTUS42 KTBW 270538
TAFSRQ
TAF
KSRQ 270538Z 2706/2806 26009KT P6SM BKN015
      TEMPO 2708/2712 SCT015 BKN022
     FM271400 29008KT P6SM VCSH SCT015 BKN100
     FM271900 35009KT P6SM SCT030 BKN100
     FM280100 13006KT P6SM SCT020 SCT100 BKN250=



000
FTUS42 KTBW 270538
TAFFMY
TAF
KFMY 270538Z 2706/2806 25006KT P6SM SCT020 SCT250
      TEMPO 2708/2712 BKN020
     FM271400 29009KT P6SM SCT025 BKN250
     FM271900 32010KT P6SM VCTS SCT040CB SCT120 BKN250
     FM280100 12004KT P6SM SCT020 SCT100 BKN250=



000
FTUS42 KTBW 270538
TAFRSW
TAF
KRSW 270538Z 2706/2806 25005KT P6SM SCT020 SCT250
      TEMPO 2708/2712 BKN020
     FM271400 29009KT P6SM SCT025 BKN250
     FM271900 32010KT P6SM VCTS SCT040CB SCT120 BKN250
     FM280100 12004KT P6SM SCT020 SCT100 BKN250=



000
FTUS42 KTBW 270538
TAFSRQ
TAF
KSRQ 270538Z 2706/2806 26009KT P6SM BKN015
      TEMPO 2708/2712 SCT015 BKN022
     FM271400 29008KT P6SM VCSH SCT015 BKN100
     FM271900 35009KT P6SM SCT030 BKN100
     FM280100 13006KT P6SM SCT020 SCT100 BKN250=



000
FTUS42 KTBW 270420 AAA
TAFSRQ
TAF AMD
KSRQ 270420Z 2704/2724 26011KT P6SM SCT022 BKN090
      TEMPO 2704/2708 BKN022
     FM271400 31008KT P6SM VCSH SCT015 BKN100
     FM272000 27009KT P6SM SCT030 BKN100=



000
FTUS42 KTBW 270419 AAC
TAFTPA
TAF AMD
KTPA 270419Z 2704/2724 25009KT P6SM SCT015 BKN025
      TEMPO 2704/2708 BKN015
     FM271300 29006KT P6SM VCSH SCT020 BKN100
     FM271900 25008KT P6SM SCT030 BKN100=



000
FTUS42 KTBW 270305 AAB
TAFTPA
TAF AMD
KTPA 270305Z 2703/2724 25009KT P6SM SCT015 BKN035
     FM271300 29006KT P6SM VCSH SCT020 BKN100
     FM271900 25008KT P6SM SCT030 BKN100=



000
FTUS42 KTBW 270153 AAA
TAFPIE
TAF AMD
KPIE 270153Z 2702/2724 26012KT P6SM BKN020 BKN040
     FM270300 26009KT P6SM BKN020 BKN100
     FM271200 30005KT P6SM VCSH SCT020 BKN100
     FM271900 27009KT P6SM SCT030 BKN100=



000
FTUS42 KTBW 270153 AAA
TAFTPA
TAF AMD
KTPA 270153Z 2702/2724 24009KT P6SM SCT015 BKN030
     FM271300 29006KT P6SM VCSH SCT020 BKN100
     FM271900 25008KT P6SM SCT030 BKN100=



000
FTUS42 KTBW 262338
TAFRSW
TAF
KRSW 262338Z 2700/2724 26010KT P6SM SCT030
     FM271000 22004KT P6SM SCT010 SCT250
     FM271500 28008KT P6SM SCT020 BKN250
     FM272000 25012KT P6SM SCT030 BKN100=



000
FTUS42 KTBW 262338
TAFFMY
TAF
KFMY 262338Z 2700/2724 28010KT P6SM SCT030
     FM271000 22005KT P6SM SCT010 SCT250
     FM271500 29009KT P6SM SCT020 BKN250
     FM272000 25010KT P6SM SCT030 BKN100=



000
FTUS42 KTBW 262338
TAFTPA
TAF
KTPA 262338Z 2700/2724 26012KT P6SM SCT025 SCT040
     FM270200 24009KT P6SM SCT020 BKN100
     FM271300 29006KT P6SM VCSH SCT020 BKN100
     FM271900 25008KT P6SM SCT030 BKN100=



000
FTUS42 KTBW 262338
TAFPIE
TAF
KPIE 262338Z 2700/2724 26012KT P6SM BKN020 BKN040
     FM270300 26009KT P6SM SCT020 BKN100
     FM271200 30005KT P6SM VCSH SCT020 BKN100
     FM271900 27009KT P6SM SCT030 BKN100=



000
FTUS42 KTBW 262338
TAFSRQ
TAF
KSRQ 262338Z 2700/2724 26011KT P6SM BKN015 OVC020
     FM271400 31008KT P6SM VCSH SCT015 BKN100
     FM272000 27009KT P6SM SCT030 BKN100=



000
FTUS42 KTBW 262105 AAA
TAFTPA
TAF AMD
KTPA 262105Z 2621/2718 26014G24KT P6SM SCT025 BKN100
     FM262300 26012KT P6SM SCT040 SCT100 BKN250
     FM270200 24009KT P6SM SCT020 BKN100
     FM271300 27006KT P6SM VCSH SCT020 BKN100=



000
FTUS42 KTBW 261740
TAFSRQ
TAF
KSRQ 261740Z 2618/2718 25010G20KT P6SM SCT020 SCT100 BKN250
      TEMPO 2618/2620 BKN020
     FM262300 26011KT P6SM FEW030 SCT100 BKN250
     FM271400 31008KT P6SM VCSH SCT015 BKN100=



000
FTUS42 KTBW 261740
TAFRSW
TAF
KRSW 261740Z 2618/2718 25012G22KT P6SM SCT030 SCT100 SCT250
     FM262300 26010KT P6SM SCT030 SCT250
     FM271000 22004KT P6SM SCT010 SCT250
     FM271500 28008KT P6SM SCT020 BKN250=



000
FTUS42 KTBW 261740
TAFTPA
TAF
KTPA 261740Z 2618/2718 25014G24KT P6SM SCT020 BKN100
     FM262300 24012KT P6SM SCT040 SCT100 BKN250
     FM270200 24009KT P6SM SCT020 BKN100
     FM271300 27006KT P6SM VCSH SCT020 BKN100=



000
FTUS42 KTBW 261740
TAFFMY
TAF
KFMY 261740Z 2618/2718 25013G23KT P6SM SCT030 SCT100 SCT250
     FM262300 26010KT P6SM SCT030 SCT250
     FM271000 25005KT P6SM SCT010 SCT250
     FM271500 29007KT P6SM SCT020 BKN250=



000
FTUS42 KTBW 261740
TAFFMY
TAF
KFMY 261740Z 2618/2718 25013G23KT P6SM SCT030 SCT100 SCT250
     FM262300 26010KT P6SM SCT030 SCT250
     FM271000 25005KT P6SM SCT010 SCT250
     FM271500 29007KT P6SM SCT020 BKN250=



000
FTUS42 KTBW 261740
TAFPIE
TAF
KPIE 261740Z 2618/2718 25016G24KT P6SM SCT020 BKN100
     FM262300 26012KT P6SM SCT040 SCT100 BKN250
     FM270300 26009KT P6SM SCT020 BKN100
     FM271200 27005KT P6SM VCSH SCT020 BKN100=



000
FTUS42 KTBW 261740
TAFTPA
TAF
KTPA 261740Z 2618/2718 25014G24KT P6SM SCT020 BKN100
     FM262300 24012KT P6SM SCT040 SCT100 BKN250
     FM270200 24009KT P6SM SCT020 BKN100
     FM271300 27006KT P6SM VCSH SCT020 BKN100=



000
FTUS42 KTBW 261740
TAFSRQ
TAF
KSRQ 261740Z 2618/2718 25010G20KT P6SM SCT020 SCT100 BKN250
      TEMPO 2618/2620 BKN020
     FM262300 26011KT P6SM FEW030 SCT100 BKN250
     FM271400 31008KT P6SM VCSH SCT015 BKN100=



000
FTUS42 KTBW 261740
TAFRSW
TAF
KRSW 261740Z 2618/2718 25012G22KT P6SM SCT030 SCT100 SCT250
     FM262300 26010KT P6SM SCT030 SCT250
     FM271000 22004KT P6SM SCT010 SCT250
     FM271500 28008KT P6SM SCT020 BKN250=



000
FTUS42 KTBW 261740
TAFPIE
TAF
KPIE 261740Z 2618/2718 25016G24KT P6SM SCT020 BKN100
     FM262300 26012KT P6SM SCT040 SCT100 BKN250
     FM270300 26009KT P6SM SCT020 BKN100
     FM271200 27005KT P6SM VCSH SCT020 BKN100=



000
FTUS42 KTBW 261521 AAA
TAFPIE
TAF AMD
KPIE 261521Z 2615/2712 24014G22KT P6SM BKN020 BKN100
      TEMPO 2615/2618 SCT020 BKN100
     FM261800 25016G24KT P6SM VCSH SCT030 BKN100
     FM262300 26012KT P6SM SCT040 SCT100 BKN250=



000
FTUS42 KTBW 261458 AAA
TAFTPA
TAF AMD
KTPA 261458Z 2615/2712 23011KT P6SM BKN030 BKN100
      TEMPO 2615/2618 SCT030
     FM261800 25014G24KT P6SM VCSH SCT035 BKN100
     FM262300 24012KT P6SM SCT040 SCT100 BKN250=



000
FTUS42 KTBW 261458 AAA
TAFTPA
TAF AMD
KTPA 261458Z 2615/2712 23011KT P6SM BKN030 BKN100
      TEMPO 2615/2618 SCT030
     FM261800 25014G24KT P6SM VCSH SCT035 BKN100
     FM262300 24012KT P6SM SCT040 SCT100 BKN250=



000
FTUS42 KTBW 261125
TAFTPA
TAF
KTPA 261125Z 2612/2712 23012KT P6SM SCT015 SCT250
     FM261500 23013G20KT P6SM VCSH SCT025 SCT100 BKN250
     FM261800 25014G24KT P6SM VCSH SCT035 BKN100
     FM262300 24012KT P6SM SCT040 SCT100 BKN250=



000
FTUS42 KTBW 261125
TAFTPA
TAF
KTPA 261125Z 2612/2712 23012KT P6SM SCT015 SCT250
     FM261500 23013G20KT P6SM VCSH SCT025 SCT100 BKN250
     FM261800 25014G24KT P6SM VCSH SCT035 BKN100
     FM262300 24012KT P6SM SCT040 SCT100 BKN250=



000
FTUS42 KTBW 261125
TAFFMY
TAF
KFMY 261125Z 2612/2712 22010KT P6SM FEW250
     FM261400 24012KT P6SM SCT025 SCT250
     FM261800 25013G20KT P6SM SCT040 SCT250
     FM262300 26010KT P6SM FEW250=



000
FTUS42 KTBW 261125
TAFPIE
TAF
KPIE 261125Z 2612/2712 22013KT P6SM SCT012 SCT250
     FM261500 24014G22KT P6SM VCSH SCT020 SCT100 BKN250
     FM261800 25016G24KT P6SM VCSH SCT030 BKN100
     FM262300 26012KT P6SM SCT040 SCT100 BKN250=



000
FTUS42 KTBW 261125
TAFSRQ
TAF
KSRQ 261125Z 2612/2712 22013KT P6SM SCT015 SCT250
     FM261400 23013G20KT P6SM SCT025 SCT100 SCT250
     FM261800 25015G23KT P6SM SCT030 SCT100 BKN250
     FM262300 26013KT P6SM FEW030 SCT100 BKN250=



000
FTUS42 KTBW 261125
TAFRSW
TAF
KRSW 261125Z 2612/2712 22010KT P6SM FEW250
     FM261400 24012KT P6SM SCT025 SCT250
     FM261800 25013G20KT P6SM SCT040 SCT250
     FM262300 26010KT P6SM FEW250=



000
FTUS42 KTBW 260856 AAB
TAFTPA
TAF AMD
KTPA 260856Z 2609/2706 22013G20KT P6SM SCT015 SCT250
      TEMPO 2609/2612 BKN015
     FM261200 22010KT P6SM SCT015 SCT250
     FM261400 23013G20KT P6SM VCSH SCT020 SCT250
     FM261800 25014G24KT P6SM VCSH SCT035 SCT250
     FM262300 24012KT P6SM SCT040 BKN250=



000
FTUS42 KTBW 260856 AAB
TAFTPA
TAF AMD
KTPA 260856Z 2609/2706 22013G20KT P6SM SCT015 SCT250
      TEMPO 2609/2612 BKN015
     FM261200 22010KT P6SM SCT015 SCT250
     FM261400 23013G20KT P6SM VCSH SCT020 SCT250
     FM261800 25014G24KT P6SM VCSH SCT035 SCT250
     FM262300 24012KT P6SM SCT040 BKN250=



000
FTUS42 KTBW 260707 AAA
TAFSRQ
TAF AMD
KSRQ 260707Z 2607/2706 22013G20KT P6SM SCT014 SCT250
      TEMPO 2607/2610 BKN014
     FM261000 22010KT P6SM SCT014 SCT250
     FM261400 23013G20KT P6SM SCT025 SCT250
     FM261800 25015G23KT P6SM SCT030 SCT250
     FM262300 26013KT P6SM FEW030 BKN250=



000
FTUS42 KTBW 260707 AAA
TAFSRQ
TAF AMD
KSRQ 260707Z 2607/2706 22013G20KT P6SM SCT014 SCT250
      TEMPO 2607/2610 BKN014
     FM261000 22010KT P6SM SCT014 SCT250
     FM261400 23013G20KT P6SM SCT025 SCT250
     FM261800 25015G23KT P6SM SCT030 SCT250
     FM262300 26013KT P6SM FEW030 BKN250=



000
FTUS42 KTBW 260706 AAA
TAFPIE
TAF AMD
KPIE 260706Z 2607/2706 22013G20KT P6SM SCT014 SCT250
      TEMPO 2607/2610 BKN014
     FM261000 22010KT P6SM SCT012 SCT250
     FM261400 26014G22KT P6SM VCSH SCT020 SCT250
     FM261800 25016G24KT P6SM VCSH SCT030 SCT250
     FM262300 26012KT P6SM SCT040 BKN250=



000
FTUS42 KTBW 260705 AAA
TAFTPA
TAF AMD
KTPA 260705Z 2607/2706 22013G20KT P6SM SCT011 SCT250
      TEMPO 2607/2610 BKN011
     FM261000 23008KT P6SM SCT015 SCT250
     FM261400 22013G20KT P6SM VCSH SCT020 SCT250
     FM261800 25014G24KT P6SM VCSH SCT035 SCT250
     FM262300 24012KT P6SM SCT040 BKN250=



000
FTUS42 KTBW 260542
TAFRSW
TAF
KRSW 260542Z 2606/2706 23004KT P6SM FEW250
     FM261400 24012KT P6SM SCT025 SCT250
     FM261800 25013G20KT P6SM SCT040 SCT250
     FM262300 26010KT P6SM FEW250=



000
FTUS42 KTBW 260542
TAFTPA
TAF
KTPA 260542Z 2606/2706 22008KT P6SM FEW015 BKN100
     FM260800 23008KT P6SM SCT015 SCT250
     FM261400 22013G20KT P6SM VCSH SCT020 SCT250
     FM261800 25014G24KT P6SM VCSH SCT035 SCT250
     FM262300 24012KT P6SM SCT040 BKN250=



000
FTUS42 KTBW 260542
TAFPIE
TAF
KPIE 260542Z 2606/2706 22010KT P6SM SCT015 SCT250
     FM261400 26014G22KT P6SM VCSH SCT020 SCT250
     FM261800 25016G24KT P6SM VCSH SCT030 SCT250
     FM262300 26012KT P6SM SCT040 BKN250=



000
FTUS42 KTBW 260542
TAFSRQ
TAF
KSRQ 260542Z 2606/2706 24007KT P6SM SCT015 SCT250
      TEMPO 2606/2610 BKN015
     FM261400 23013G20KT P6SM SCT025 SCT250
     FM261800 25015G23KT P6SM SCT030 SCT250
     FM262300 26013KT P6SM FEW030 BKN250=



000
FTUS42 KTBW 260542
TAFFMY
TAF
KFMY 260542Z 2606/2706 22005KT P6SM FEW250
     FM261400 24012KT P6SM SCT025 SCT250
     FM261800 25013G20KT P6SM SCT040 SCT250
     FM262300 26010KT P6SM FEW250=



000
FTUS42 KTBW 260257 AAA
TAFTPA
TAF AMD
KTPA 260257Z 2603/2624 22011KT P6SM FEW015 SCT250
     FM260500 23011KT P6SM SCT015 BKN250
     FM261400 25014G24KT P6SM VCSH SCT025 SCT250=



000
FTUS42 KTBW 260257 AAA
TAFTPA
TAF AMD
KTPA 260257Z 2603/2624 22011KT P6SM FEW015 SCT250
     FM260500 23011KT P6SM SCT015 BKN250
     FM261400 25014G24KT P6SM VCSH SCT025 SCT250=



000
FTUS42 KTBW 252335
TAFFMY
TAF
KFMY 252335Z 2600/2624 25007KT P6SM SKC
     FM260600 20008KT P6SM SCT020 SCT250
     FM261400 26013G25KT P6SM SCT025 SCT250=



000
FTUS42 KTBW 252335
TAFSRQ
TAF
KSRQ 252335Z 2600/2624 24007KT P6SM FEW020
     FM260600 24011KT P6SM SCT015 SCT250
     FM261400 25014G23KT P6SM SCT025 SCT250=



000
FTUS42 KTBW 252335
TAFRSW
TAF
KRSW 252335Z 2600/2624 24007KT P6SM SKC
     FM260600 20007KT P6SM SCT020 SCT250
     FM261400 26013G25KT P6SM SCT025 SCT250=



000
FTUS42 KTBW 252335
TAFPIE
TAF
KPIE 252335Z 2600/2624 24008KT P6SM SCT025
     FM260600 23008KT P6SM SCT015 SCT250
     FM261400 26014G24KT P6SM VCSH SCT025 SCT250=



000
FTUS42 KTBW 252335
TAFTPA
TAF
KTPA 252335Z 2600/2624 24011KT P6SM SCT025
     FM260600 23011KT P6SM SCT015 SCT250
     FM261400 25014G24KT P6SM VCSH SCT025 SCT250=



000
FTUS42 KTBW 252104 AAA
TAFTPA
TAF AMD
KTPA 252104Z 2521/2618 25012G18KT P6SM FEW030 BKN250
     FM260000 22011KT P6SM FEW030 SCT250
     FM260600 23011KT P6SM SCT015 SCT250
     FM261400 25014KT P6SM VCSH SCT025 SCT250=



000
FTUS42 KTBW 252104 AAA
TAFTPA
TAF AMD
KTPA 252104Z 2521/2618 25012G18KT P6SM FEW030 BKN250
     FM260000 22011KT P6SM FEW030 SCT250
     FM260600 23011KT P6SM SCT015 SCT250
     FM261400 25014KT P6SM VCSH SCT025 SCT250=



000
FTUS42 KTBW 251751
TAFSRQ
TAF
KSRQ 251751Z 2518/2618 24011G17KT P6SM FEW030 SCT250
     FM260000 24012KT P6SM FEW030 SCT250
     FM260600 24011KT P6SM SCT015 SCT250
     FM261400 25014KT P6SM SCT025 SCT250=



000
FTUS42 KTBW 251751
TAFPIE
TAF
KPIE 251751Z 2518/2618 23011G18KT P6SM SCT030 SCT250
     FM260000 24010KT P6SM FEW030 SCT250
     FM260600 23008KT P6SM SCT015 SCT250
     FM261400 26014KT P6SM VCSH SCT025 SCT250=



000
FTUS42 KTBW 251751
TAFTPA
TAF
KTPA 251751Z 2518/2618 23012G18KT P6SM SCT030 SCT250
     FM260000 22011KT P6SM FEW030 SCT250
     FM260600 23011KT P6SM SCT015 SCT250
     FM261400 25014KT P6SM VCSH SCT025 SCT250=



000
FTUS42 KTBW 251751
TAFRSW
TAF
KRSW 251751Z 2518/2618 24014G20KT P6SM FEW035 FEW250
     FM252300 24007KT P6SM FEW035 FEW250
     FM261400 22013KT P6SM SCT025 SCT250=



000
FTUS42 KTBW 251751
TAFTPA
TAF
KTPA 251751Z 2518/2618 23012G18KT P6SM SCT030 SCT250
     FM260000 22011KT P6SM FEW030 SCT250
     FM260600 23011KT P6SM SCT015 SCT250
     FM261400 25014KT P6SM VCSH SCT025 SCT250=



000
FTUS42 KTBW 251751
TAFPIE
TAF
KPIE 251751Z 2518/2618 23011G18KT P6SM SCT030 SCT250
     FM260000 24010KT P6SM FEW030 SCT250
     FM260600 23008KT P6SM SCT015 SCT250
     FM261400 26014KT P6SM VCSH SCT025 SCT250=



000
FTUS42 KTBW 251751
TAFSRQ
TAF
KSRQ 251751Z 2518/2618 24011G17KT P6SM FEW030 SCT250
     FM260000 24012KT P6SM FEW030 SCT250
     FM260600 24011KT P6SM SCT015 SCT250
     FM261400 25014KT P6SM SCT025 SCT250=



000
FTUS42 KTBW 251751
TAFRSW
TAF
KRSW 251751Z 2518/2618 24014G20KT P6SM FEW035 FEW250
     FM252300 24007KT P6SM FEW035 FEW250
     FM261400 22013KT P6SM SCT025 SCT250=



000
FTUS42 KTBW 251751
TAFFMY
TAF
KFMY 251751Z 2518/2618 25013KT P6SM FEW035 FEW250
     FM252300 25007KT P6SM FEW035 FEW250
     FM261400 22013KT P6SM SCT025 SCT250=



000
FTUS42 KTBW 251557 AAA
TAFSRQ
TAF AMD
KSRQ 251557Z 2516/2612 22012KT P6SM SCT035 SCT250
     FM251700 23013G20KT P6SM FEW035 SCT250
     FM252300 26012KT P6SM FEW040 SCT250
     FM260600 24010KT P6SM SCT015 SCT250=



000
FTUS42 KTBW 251556 AAA
TAFPIE
TAF AMD
KPIE 251556Z 2516/2612 20012KT P6SM SCT025 SCT250
      TEMPO 2516/2517 BKN025
     FM251700 23013G22KT P6SM SCT035 SCT250
     FM260000 24010KT P6SM FEW040 SCT250
     FM260600 23008KT P6SM SCT015 SCT200=



000
FTUS42 KTBW 251555 AAB
TAFTPA
TAF AMD
KTPA 251555Z 2516/2612 20010G15KT P6SM SCT020 SCT250
      TEMPO 2516/2517 BKN020
     FM251700 22012G20KT P6SM SCT035 SCT250
     FM260100 22011KT P6SM SCT030 SCT200
     FM260600 23010KT P6SM SCT015 SCT200=



000
FTUS42 KTBW 251555 AAB
TAFTPA
TAF AMD
KTPA 251555Z 2516/2612 20010G15KT P6SM SCT020 SCT250
      TEMPO 2516/2517 BKN020
     FM251700 22012G20KT P6SM SCT035 SCT250
     FM260100 22011KT P6SM SCT030 SCT200
     FM260600 23010KT P6SM SCT015 SCT200=



000
FTUS42 KTBW 251554 AAA
TAFFMY
TAF AMD
KFMY 251554Z 2516/2612 19011KT P6SM SCT030 SCT250
      TEMPO 2516/2517 6SM SHRA BKN030
     FM251700 24012G20KT P6SM SCT040 SCT250
     FM252300 25010KT P6SM FEW050 SCT250
     FM260300 22006KT P6SM SCT020 SCT250=



000
FTUS42 KTBW 251554 AAA
TAFRSW
TAF AMD
KRSW 251554Z 2516/2612 20011KT P6SM SCT030 SCT250
      TEMPO 2516/2517 6SM SHRA BKN030
     FM251700 23012G20KT P6SM SCT040 SCT250
     FM252300 25010KT P6SM FEW050 SCT250
     FM260600 22006KT P6SM SCT020 SCT250=



000
FTUS42 KTBW 251506 AAA
TAFTPA
TAF AMD
KTPA 251506Z 2515/2612 20010G15KT P6SM SCT030 SCT250
     FM251700 22013G20KT P6SM SCT040 SCT250
     FM260100 22011KT P6SM SCT030 SCT200
     FM260600 23010KT P6SM SCT015 SCT200=



000
FTUS42 KTBW 251142
TAFSRQ
TAF
KSRQ 251142Z 2512/2612 13008KT P6SM FEW030 FEW250
     FM251400 18010KT P6SM SCT030 SCT250
     FM251700 23013G20KT P6SM SCT040 SCT250
     FM252300 26012KT P6SM FEW040 SCT250
     FM260600 24010KT P6SM SCT015 SCT250=



000
FTUS42 KTBW 251142
TAFTPA
TAF
KTPA 251142Z 2512/2612 15006KT P6SM FEW030 FEW250
     FM251400 18010G15KT P6SM SCT030 SCT250
     FM251700 22013G20KT P6SM SCT040 SCT250
     FM260100 22011KT P6SM SCT030 SCT200
     FM260600 23010KT P6SM SCT015 SCT200=



000
FTUS42 KTBW 251142
TAFRSW
TAF
KRSW 251142Z 2512/2612 13006KT P6SM FEW250
     FM251400 17010KT P6SM SCT030 SCT250
     FM251700 23012G20KT P6SM SCT040 SCT250
     FM252300 25010KT P6SM FEW050 SCT250
     FM260600 22006KT P6SM SCT020 SCT250=



000
FTUS42 KTBW 251142
TAFPIE
TAF
KPIE 251142Z 2512/2612 16009KT P6SM FEW030 FEW250
     FM251400 18012KT P6SM SCT030 SCT250
     FM251700 23013G22KT P6SM SCT035 SCT250
     FM260000 24010KT P6SM FEW040 SCT250
     FM260600 23008KT P6SM SCT015 SCT200=



000
FTUS42 KTBW 251142
TAFFMY
TAF
KFMY 251142Z 2512/2612 13006KT P6SM FEW250
     FM251400 18008KT P6SM SCT030 SCT250
     FM251700 24012G20KT P6SM SCT040 SCT250
     FM252300 25010KT P6SM FEW050 SCT250
     FM260300 22006KT P6SM SCT020 SCT250=



000
FTUS42 KTBW 250909 AAA
TAFTPA
TAF AMD
KTPA 250909Z 2509/2606 12005KT P6SM FEW030 SCT250
     FM251400 17010KT P6SM SCT030 SCT120 SCT250
     FM251800 22012G22KT P6SM SCT040 SCT250=



000
FTUS42 KTBW 250521
TAFRSW
TAF
KRSW 250521Z 2506/2606 10006KT P6SM SCT250
     FM251400 17009KT P6SM SCT030 SCT250
     FM251900 23014G22KT P6SM SCT040 SCT250
     FM252300 25006KT P6SM SCT050 SCT250=



000
FTUS42 KTBW 250521
TAFFMY
TAF
KFMY 250521Z 2506/2606 12007KT P6SM SCT250
     FM251400 17007KT P6SM SCT030 SCT250
     FM251900 23014G24KT P6SM SCT040 SCT250
     FM252300 25006KT P6SM SCT050 SCT250=



000
FTUS42 KTBW 250521
TAFSRQ
TAF
KSRQ 250521Z 2506/2606 11007KT P6SM SCT250
     FM251400 18009KT P6SM SCT030 SCT250
     FM251800 23014G22KT P6SM SCT040 SCT250
     FM252300 26010KT P6SM SCT250=



000
FTUS42 KTBW 250521
TAFPIE
TAF
KPIE 250521Z 2506/2606 13012G18KT P6SM SCT250
     FM250700 12007KT P6SM SCT250
     FM251400 18012KT P6SM SCT030 SCT250
     FM251800 22016G24KT P6SM FEW035 SCT250
     FM252300 25008KT P6SM FEW040 SCT250=



000
FTUS42 KTBW 250521
TAFPIE
TAF
KPIE 250521Z 2506/2606 13012G18KT P6SM SCT250
     FM250700 12007KT P6SM SCT250
     FM251400 18012KT P6SM SCT030 SCT250
     FM251800 22016G24KT P6SM FEW035 SCT250
     FM252300 25008KT P6SM FEW040 SCT250=



000
FTUS42 KTBW 250521
TAFTPA
TAF
KTPA 250521Z 2506/2606 11005KT P6SM FEW050 SCT250
     FM251400 17010KT P6SM SCT030 SCT120 SCT250
     FM251800 22012G22KT P6SM SCT040 SCT250=



000
FTUS42 KTBW 250521
TAFFMY
TAF
KFMY 250521Z 2506/2606 12007KT P6SM SCT250
     FM251400 17007KT P6SM SCT030 SCT250
     FM251900 23014G24KT P6SM SCT040 SCT250
     FM252300 25006KT P6SM SCT050 SCT250=



000
FTUS42 KTBW 250521
TAFSRQ
TAF
KSRQ 250521Z 2506/2606 11007KT P6SM SCT250
     FM251400 18009KT P6SM SCT030 SCT250
     FM251800 23014G22KT P6SM SCT040 SCT250
     FM252300 26010KT P6SM SCT250=



000
FTUS42 KTBW 250521
TAFRSW
TAF
KRSW 250521Z 2506/2606 10006KT P6SM SCT250
     FM251400 17009KT P6SM SCT030 SCT250
     FM251900 23014G22KT P6SM SCT040 SCT250
     FM252300 25006KT P6SM SCT050 SCT250=



000
FTUS42 KTBW 250304 AAA
TAFTPA
TAF AMD
KTPA 250304Z 2503/2524 11007KT P6SM FEW050 SCT250
     FM251400 17010KT P6SM SCT030 SCT120 SCT250
     FM251800 22012G22KT P6SM SCT040 SCT250=



    US Dept of Commerce
    National Oceanic and Atmospheric Administration
    National Weather Service
    1325 East West Highway
    Silver Spring, MD 20910
    Page Author: NWS Internet Services Team
Disclaimer
Information Quality
Credits
Glossary
Privacy Policy
Freedom of Information Act (FOIA)
About Us
Career Opportunities